sensor_id;sensor_type;location;lat;lon;timestamp;P1;durP1;ratioP1;P2;durP2;ratioP2
22922;SDS011;11627;51.322;22.816;2023-04-20T00:02:09;15.48;;;7.90;;
22922;SDS011;11627;51.322;22.816;2023-04-20T00:04:37;15.85;;;7.85;;
22922;SDS011;11627;51.322;22.816;2023-04-20T00:07:03;16.90;;;8.25;;
22922;SDS011;11627;51.322;22.816;2023-04-20T00:09:30;16.52;;;8.13;;
22922;SDS011;11627;51.322;22.816;2023-04-20T00:11:56;17.20;;;7.47;;
22922;SDS011;11627;51.322;22.816;2023-04-20T00:14:23;14.35;;;7.00;;
22922;SDS011;11627;51.322;22.816;2023-04-20T00:16:49;14.65;;;7.28;;
22922;SDS011;11627;51.322;22.816;2023-04-20T00:19:14;16.33;;;7.13;;
22922;SDS011;11627;51.322;22.816;2023-04-20T00:21:40;15.60;;;6.72;;
22922;SDS011;11627;51.322;22.816;2023-04-20T00:24:06;19.17;;;7.22;;
22922;SDS011;11627;51.322;22.816;2023-04-20T00:26:33;17.10;;;6.75;;
22922;SDS011;11627;51.322;22.816;2023-04-20T00:29:01;14.57;;;7.25;;
22922;SDS011;11627;51.322;22.816;2023-04-20T00:31:28;16.77;;;6.53;;
22922;SDS011;11627;51.322;22.816;2023-04-20T00:33:55;13.95;;;6.72;;
22922;SDS011;11627;51.322;22.816;2023-04-20T00:36:22;10.52;;;6.40;;
22922;SDS011;11627;51.322;22.816;2023-04-20T00:38:48;14.18;;;6.22;;
22922;SDS011;11627;51.322;22.816;2023-04-20T00:41:15;10.20;;;5.43;;
22922;SDS011;11627;51.322;22.816;2023-04-20T00:43:51;11.70;;;5.55;;
22922;SDS011;11627;51.322;22.816;2023-04-20T00:46:17;11.30;;;5.53;;
22922;SDS011;11627;51.322;22.816;2023-04-20T00:48:50;11.88;;;4.80;;
22922;SDS011;11627;51.322;22.816;2023-04-20T00:51:21;9.55;;;5.35;;
22922;SDS011;11627;51.322;22.816;2023-04-20T00:53:47;9.68;;;5.05;;
22922;SDS011;11627;51.322;22.816;2023-04-20T00:56:14;11.07;;;5.30;;
22922;SDS011;11627;51.322;22.816;2023-04-20T00:58:43;10.35;;;5.32;;
22922;SDS011;11627;51.322;22.816;2023-04-20T01:01:11;8.95;;;5.32;;
22922;SDS011;11627;51.322;22.816;2023-04-20T01:03:43;11.60;;;4.95;;
22922;SDS011;11627;51.322;22.816;2023-04-20T01:06:09;9.27;;;4.82;;
22922;SDS011;11627;51.322;22.816;2023-04-20T01:08:49;9.45;;;4.60;;
22922;SDS011;11627;51.322;22.816;2023-04-20T01:11:15;12.18;;;4.68;;
22922;SDS011;11627;51.322;22.816;2023-04-20T01:13:44;7.10;;;4.55;;
22922;SDS011;11627;51.322;22.816;2023-04-20T01:16:10;7.97;;;4.47;;
22922;SDS011;11627;51.322;22.816;2023-04-20T01:18:47;6.65;;;4.10;;
22922;SDS011;11627;51.322;22.816;2023-04-20T01:21:28;9.18;;;4.60;;
22922;SDS011;11627;51.322;22.816;2023-04-20T01:23:55;8.73;;;4.38;;
22922;SDS011;11627;51.322;22.816;2023-04-20T01:26:22;7.50;;;4.22;;
22922;SDS011;11627;51.322;22.816;2023-04-20T01:28:49;9.30;;;4.50;;
22922;SDS011;11627;51.322;22.816;2023-04-20T01:31:16;9.95;;;4.25;;
22922;SDS011;11627;51.322;22.816;2023-04-20T01:33:41;9.60;;;4.63;;
22922;SDS011;11627;51.322;22.816;2023-04-20T01:36:07;6.93;;;4.30;;
22922;SDS011;11627;51.322;22.816;2023-04-20T01:38:34;7.22;;;4.28;;
22922;SDS011;11627;51.322;22.816;2023-04-20T01:41:02;12.25;;;5.30;;
22922;SDS011;11627;51.322;22.816;2023-04-20T01:43:29;12.15;;;4.95;;
22922;SDS011;11627;51.322;22.816;2023-04-20T01:45:55;7.75;;;4.43;;
22922;SDS011;11627;51.322;22.816;2023-04-20T01:48:22;10.40;;;4.50;;
22922;SDS011;11627;51.322;22.816;2023-04-20T01:50:51;7.13;;;4.47;;
22922;SDS011;11627;51.322;22.816;2023-04-20T01:53:19;8.82;;;4.40;;
22922;SDS011;11627;51.322;22.816;2023-04-20T01:55:45;8.43;;;4.40;;
22922;SDS011;11627;51.322;22.816;2023-04-20T01:58:13;5.65;;;3.88;;
22922;SDS011;11627;51.322;22.816;2023-04-20T02:00:41;6.93;;;4.45;;
22922;SDS011;11627;51.322;22.816;2023-04-20T02:03:07;8.13;;;3.88;;
22922;SDS011;11627;51.322;22.816;2023-04-20T02:05:33;8.40;;;4.50;;
22922;SDS011;11627;51.322;22.816;2023-04-20T02:08:00;11.25;;;4.53;;
22922;SDS011;11627;51.322;22.816;2023-04-20T02:10:27;9.20;;;4.40;;
22922;SDS011;11627;51.322;22.816;2023-04-20T02:12:54;7.00;;;4.45;;
22922;SDS011;11627;51.322;22.816;2023-04-20T02:15:19;6.97;;;4.50;;
22922;SDS011;11627;51.322;22.816;2023-04-20T02:17:45;10.65;;;4.05;;
22922;SDS011;11627;51.322;22.816;2023-04-20T02:20:16;7.95;;;4.20;;
22922;SDS011;11627;51.322;22.816;2023-04-20T02:22:43;6.50;;;4.15;;
22922;SDS011;11627;51.322;22.816;2023-04-20T02:25:10;8.60;;;4.20;;
22922;SDS011;11627;51.322;22.816;2023-04-20T02:27:37;9.98;;;4.28;;
22922;SDS011;11627;51.322;22.816;2023-04-20T02:30:05;10.73;;;4.22;;
22922;SDS011;11627;51.322;22.816;2023-04-20T02:32:32;7.20;;;4.38;;
22922;SDS011;11627;51.322;22.816;2023-04-20T02:34:59;9.85;;;4.50;;
22922;SDS011;11627;51.322;22.816;2023-04-20T02:37:24;6.05;;;4.03;;
22922;SDS011;11627;51.322;22.816;2023-04-20T02:39:52;6.88;;;4.30;;
22922;SDS011;11627;51.322;22.816;2023-04-20T02:42:18;6.72;;;3.83;;
22922;SDS011;11627;51.322;22.816;2023-04-20T02:44:45;8.25;;;3.85;;
22922;SDS011;11627;51.322;22.816;2023-04-20T02:47:10;7.38;;;4.30;;
22922;SDS011;11627;51.322;22.816;2023-04-20T02:49:38;8.73;;;4.07;;
22922;SDS011;11627;51.322;22.816;2023-04-20T02:52:04;9.50;;;4.28;;
22922;SDS011;11627;51.322;22.816;2023-04-20T02:54:30;6.13;;;4.00;;
22922;SDS011;11627;51.322;22.816;2023-04-20T02:56:56;8.98;;;4.18;;
22922;SDS011;11627;51.322;22.816;2023-04-20T02:59:25;7.22;;;4.05;;
22922;SDS011;11627;51.322;22.816;2023-04-20T03:01:52;8.02;;;3.90;;
22922;SDS011;11627;51.322;22.816;2023-04-20T03:04:19;9.80;;;4.20;;
22922;SDS011;11627;51.322;22.816;2023-04-20T03:06:46;8.70;;;4.18;;
22922;SDS011;11627;51.322;22.816;2023-04-20T03:09:14;8.85;;;3.88;;
22922;SDS011;11627;51.322;22.816;2023-04-20T03:11:39;5.28;;;3.65;;
22922;SDS011;11627;51.322;22.816;2023-04-20T03:14:05;7.80;;;4.00;;
22922;SDS011;11627;51.322;22.816;2023-04-20T03:16:31;8.02;;;3.80;;
22922;SDS011;11627;51.322;22.816;2023-04-20T03:18:57;5.75;;;3.58;;
22922;SDS011;11627;51.322;22.816;2023-04-20T03:21:25;6.38;;;3.67;;
22922;SDS011;11627;51.322;22.816;2023-04-20T03:23:52;5.65;;;3.60;;
22922;SDS011;11627;51.322;22.816;2023-04-20T03:26:18;5.68;;;3.78;;
22922;SDS011;11627;51.322;22.816;2023-04-20T03:28:44;6.60;;;3.67;;
22922;SDS011;11627;51.322;22.816;2023-04-20T03:31:10;13.07;;;3.88;;
22922;SDS011;11627;51.322;22.816;2023-04-20T03:33:36;6.03;;;3.75;;
22922;SDS011;11627;51.322;22.816;2023-04-20T03:36:01;6.05;;;3.70;;
22922;SDS011;11627;51.322;22.816;2023-04-20T03:38:30;6.85;;;4.07;;
22922;SDS011;11627;51.322;22.816;2023-04-20T03:40:56;8.05;;;3.55;;
22922;SDS011;11627;51.322;22.816;2023-04-20T03:43:21;7.97;;;3.50;;
22922;SDS011;11627;51.322;22.816;2023-04-20T03:45:47;5.45;;;3.45;;
22922;SDS011;11627;51.322;22.816;2023-04-20T03:48:14;7.93;;;4.07;;
22922;SDS011;11627;51.322;22.816;2023-04-20T03:50:39;5.85;;;3.28;;
22922;SDS011;11627;51.322;22.816;2023-04-20T03:53:05;7.50;;;3.80;;
22922;SDS011;11627;51.322;22.816;2023-04-20T03:55:31;7.25;;;3.95;;
22922;SDS011;11627;51.322;22.816;2023-04-20T03:57:57;10.23;;;3.95;;
22922;SDS011;11627;51.322;22.816;2023-04-20T04:00:23;8.57;;;3.83;;
22922;SDS011;11627;51.322;22.816;2023-04-20T04:02:49;9.10;;;3.70;;
22922;SDS011;11627;51.322;22.816;2023-04-20T04:05:15;8.63;;;3.55;;
22922;SDS011;11627;51.322;22.816;2023-04-20T04:07:42;6.78;;;3.60;;
22922;SDS011;11627;51.322;22.816;2023-04-20T04:10:08;5.50;;;3.50;;
22922;SDS011;11627;51.322;22.816;2023-04-20T04:12:34;6.95;;;3.50;;
22922;SDS011;11627;51.322;22.816;2023-04-20T04:15:00;5.05;;;3.35;;
22922;SDS011;11627;51.322;22.816;2023-04-20T04:17:26;5.85;;;3.58;;
22922;SDS011;11627;51.322;22.816;2023-04-20T04:19:53;6.72;;;4.00;;
22922;SDS011;11627;51.322;22.816;2023-04-20T04:22:20;11.27;;;3.90;;
22922;SDS011;11627;51.322;22.816;2023-04-20T04:24:48;4.60;;;3.53;;
22922;SDS011;11627;51.322;22.816;2023-04-20T04:27:14;4.93;;;3.70;;
22922;SDS011;11627;51.322;22.816;2023-04-20T04:29:40;7.30;;;3.92;;
22922;SDS011;11627;51.322;22.816;2023-04-20T04:32:07;11.82;;;4.13;;
22922;SDS011;11627;51.322;22.816;2023-04-20T04:34:33;7.63;;;3.90;;
22922;SDS011;11627;51.322;22.816;2023-04-20T04:37:00;10.60;;;4.03;;
22922;SDS011;11627;51.322;22.816;2023-04-20T04:39:28;8.00;;;3.28;;
22922;SDS011;11627;51.322;22.816;2023-04-20T04:41:55;7.78;;;3.38;;
22922;SDS011;11627;51.322;22.816;2023-04-20T04:44:22;15.18;;;6.13;;
22922;SDS011;11627;51.322;22.816;2023-04-20T04:46:51;11.77;;;5.15;;
22922;SDS011;11627;51.322;22.816;2023-04-20T04:49:16;9.50;;;3.78;;
22922;SDS011;11627;51.322;22.816;2023-04-20T04:51:42;9.25;;;3.72;;
22922;SDS011;11627;51.322;22.816;2023-04-20T04:54:08;8.48;;;3.50;;
22922;SDS011;11627;51.322;22.816;2023-04-20T04:56:35;8.20;;;3.50;;
22922;SDS011;11627;51.322;22.816;2023-04-20T04:59:02;9.40;;;3.35;;
22922;SDS011;11627;51.322;22.816;2023-04-20T05:01:27;9.07;;;3.10;;
22922;SDS011;11627;51.322;22.816;2023-04-20T05:03:56;8.60;;;3.28;;
22922;SDS011;11627;51.322;22.816;2023-04-20T05:06:22;6.53;;;3.38;;
22922;SDS011;11627;51.322;22.816;2023-04-20T05:08:49;8.90;;;3.33;;
22922;SDS011;11627;51.322;22.816;2023-04-20T05:11:14;9.77;;;3.13;;
22922;SDS011;11627;51.322;22.816;2023-04-20T05:13:40;12.10;;;3.47;;
22922;SDS011;11627;51.322;22.816;2023-04-20T05:16:06;11.50;;;3.50;;
22922;SDS011;11627;51.322;22.816;2023-04-20T05:18:33;19.08;;;6.97;;
22922;SDS011;11627;51.322;22.816;2023-04-20T05:21:01;15.35;;;7.28;;
22922;SDS011;11627;51.322;22.816;2023-04-20T05:23:27;9.52;;;4.10;;
22922;SDS011;11627;51.322;22.816;2023-04-20T05:25:53;12.32;;;3.60;;
22922;SDS011;11627;51.322;22.816;2023-04-20T05:28:18;10.57;;;3.38;;
22922;SDS011;11627;51.322;22.816;2023-04-20T05:30:44;12.95;;;4.35;;
22922;SDS011;11627;51.322;22.816;2023-04-20T05:33:10;10.63;;;3.63;;
22922;SDS011;11627;51.322;22.816;2023-04-20T05:35:37;7.28;;;3.40;;
22922;SDS011;11627;51.322;22.816;2023-04-20T05:38:06;14.05;;;3.38;;
22922;SDS011;11627;51.322;22.816;2023-04-20T05:40:32;8.02;;;3.25;;
22922;SDS011;11627;51.322;22.816;2023-04-20T05:43:01;8.45;;;3.25;;
22922;SDS011;11627;51.322;22.816;2023-04-20T05:45:27;9.93;;;3.55;;
22922;SDS011;11627;51.322;22.816;2023-04-20T05:47:54;11.93;;;3.65;;
22922;SDS011;11627;51.322;22.816;2023-04-20T05:50:22;18.23;;;7.35;;
22922;SDS011;11627;51.322;22.816;2023-04-20T05:52:50;13.80;;;5.25;;
22922;SDS011;11627;51.322;22.816;2023-04-20T05:55:19;11.52;;;3.85;;
22922;SDS011;11627;51.322;22.816;2023-04-20T05:57:46;13.75;;;3.22;;
22922;SDS011;11627;51.322;22.816;2023-04-20T06:00:13;10.05;;;3.80;;
22922;SDS011;11627;51.322;22.816;2023-04-20T06:02:40;9.75;;;3.05;;
22922;SDS011;11627;51.322;22.816;2023-04-20T06:05:07;15.55;;;3.83;;
22922;SDS011;11627;51.322;22.816;2023-04-20T06:07:34;11.48;;;3.50;;
22922;SDS011;11627;51.322;22.816;2023-04-20T06:10:03;10.65;;;3.65;;
22922;SDS011;11627;51.322;22.816;2023-04-20T06:12:32;11.95;;;3.78;;
22922;SDS011;11627;51.322;22.816;2023-04-20T06:14:58;10.40;;;3.28;;
22922;SDS011;11627;51.322;22.816;2023-04-20T06:17:24;10.75;;;3.35;;
22922;SDS011;11627;51.322;22.816;2023-04-20T06:19:52;11.02;;;2.85;;
22922;SDS011;11627;51.322;22.816;2023-04-20T06:22:18;10.90;;;3.30;;
22922;SDS011;11627;51.322;22.816;2023-04-20T06:24:44;11.65;;;3.33;;
22922;SDS011;11627;51.322;22.816;2023-04-20T06:27:12;11.30;;;3.40;;
22922;SDS011;11627;51.322;22.816;2023-04-20T06:29:38;12.98;;;3.42;;
22922;SDS011;11627;51.322;22.816;2023-04-20T06:32:04;9.32;;;3.60;;
22922;SDS011;11627;51.322;22.816;2023-04-20T06:34:30;9.02;;;3.20;;
22922;SDS011;11627;51.322;22.816;2023-04-20T06:36:56;9.70;;;3.50;;
22922;SDS011;11627;51.322;22.816;2023-04-20T06:39:21;6.63;;;3.17;;
22922;SDS011;11627;51.322;22.816;2023-04-20T06:41:48;17.83;;;3.53;;
22922;SDS011;11627;51.322;22.816;2023-04-20T06:44:15;8.50;;;3.30;;
22922;SDS011;11627;51.322;22.816;2023-04-20T06:46:42;13.25;;;3.40;;
22922;SDS011;11627;51.322;22.816;2023-04-20T06:49:08;8.35;;;3.38;;
22922;SDS011;11627;51.322;22.816;2023-04-20T06:51:34;13.38;;;3.55;;
22922;SDS011;11627;51.322;22.816;2023-04-20T06:53:59;9.00;;;2.95;;
22922;SDS011;11627;51.322;22.816;2023-04-20T06:56:26;14.30;;;3.45;;
22922;SDS011;11627;51.322;22.816;2023-04-20T06:58:53;7.90;;;3.20;;
22922;SDS011;11627;51.322;22.816;2023-04-20T07:01:20;9.52;;;3.55;;
22922;SDS011;11627;51.322;22.816;2023-04-20T07:03:47;18.77;;;3.05;;
22922;SDS011;11627;51.322;22.816;2023-04-20T07:06:14;10.43;;;3.47;;
22922;SDS011;11627;51.322;22.816;2023-04-20T07:08:41;9.85;;;2.85;;
22922;SDS011;11627;51.322;22.816;2023-04-20T07:11:07;13.38;;;2.80;;
22922;SDS011;11627;51.322;22.816;2023-04-20T07:13:32;15.20;;;3.05;;
22922;SDS011;11627;51.322;22.816;2023-04-20T07:15:58;13.45;;;3.22;;
22922;SDS011;11627;51.322;22.816;2023-04-20T07:18:24;10.43;;;3.15;;
22922;SDS011;11627;51.322;22.816;2023-04-20T07:20:51;9.65;;;2.95;;
22922;SDS011;11627;51.322;22.816;2023-04-20T07:23:19;13.27;;;3.08;;
22922;SDS011;11627;51.322;22.816;2023-04-20T07:25:46;12.98;;;3.40;;
22922;SDS011;11627;51.322;22.816;2023-04-20T07:28:13;12.90;;;3.10;;
22922;SDS011;11627;51.322;22.816;2023-04-20T07:30:40;11.48;;;2.75;;
22922;SDS011;11627;51.322;22.816;2023-04-20T07:33:06;8.48;;;2.67;;
22922;SDS011;11627;51.322;22.816;2023-04-20T07:35:32;16.70;;;2.42;;
22922;SDS011;11627;51.322;22.816;2023-04-20T07:37:59;15.88;;;3.20;;
22922;SDS011;11627;51.322;22.816;2023-04-20T07:40:25;11.50;;;2.80;;
22922;SDS011;11627;51.322;22.816;2023-04-20T07:42:51;9.30;;;2.42;;
22922;SDS011;11627;51.322;22.816;2023-04-20T07:45:17;14.40;;;3.15;;
22922;SDS011;11627;51.322;22.816;2023-04-20T07:47:44;8.30;;;2.55;;
22922;SDS011;11627;51.322;22.816;2023-04-20T07:50:11;17.42;;;3.03;;
22922;SDS011;11627;51.322;22.816;2023-04-20T07:52:38;14.38;;;2.67;;
22922;SDS011;11627;51.322;22.816;2023-04-20T07:55:04;11.88;;;2.72;;
22922;SDS011;11627;51.322;22.816;2023-04-20T07:57:33;9.25;;;3.08;;
22922;SDS011;11627;51.322;22.816;2023-04-20T08:00:00;8.95;;;2.15;;
22922;SDS011;11627;51.322;22.816;2023-04-20T08:02:26;11.45;;;2.60;;
22922;SDS011;11627;51.322;22.816;2023-04-20T08:04:51;12.48;;;2.60;;
22922;SDS011;11627;51.322;22.816;2023-04-20T08:07:17;11.27;;;2.70;;
22922;SDS011;11627;51.322;22.816;2023-04-20T08:09:43;9.88;;;2.47;;
22922;SDS011;11627;51.322;22.816;2023-04-20T08:12:09;12.82;;;2.33;;
22922;SDS011;11627;51.322;22.816;2023-04-20T08:14:35;7.30;;;2.13;;
22922;SDS011;11627;51.322;22.816;2023-04-20T08:17:02;14.90;;;2.47;;
22922;SDS011;11627;51.322;22.816;2023-04-20T08:19:27;14.82;;;2.17;;
22922;SDS011;11627;51.322;22.816;2023-04-20T08:21:53;8.18;;;2.30;;
22922;SDS011;11627;51.322;22.816;2023-04-20T08:24:19;14.32;;;2.40;;
22922;SDS011;11627;51.322;22.816;2023-04-20T08:26:45;12.05;;;2.30;;
22922;SDS011;11627;51.322;22.816;2023-04-20T08:29:12;5.95;;;1.95;;
22922;SDS011;11627;51.322;22.816;2023-04-20T08:31:39;7.20;;;2.15;;
22922;SDS011;11627;51.322;22.816;2023-04-20T08:34:05;7.80;;;2.20;;
22922;SDS011;11627;51.322;22.816;2023-04-20T08:36:30;16.77;;;2.35;;
22922;SDS011;11627;51.322;22.816;2023-04-20T08:39:04;13.15;;;4.03;;
22922;SDS011;11627;51.322;22.816;2023-04-20T08:41:32;8.27;;;2.10;;
22922;SDS011;11627;51.322;22.816;2023-04-20T08:43:57;7.80;;;2.60;;
22922;SDS011;11627;51.322;22.816;2023-04-20T08:46:23;6.50;;;2.13;;
22922;SDS011;11627;51.322;22.816;2023-04-20T08:48:50;7.95;;;2.40;;
22922;SDS011;11627;51.322;22.816;2023-04-20T08:51:21;6.85;;;2.13;;
22922;SDS011;11627;51.322;22.816;2023-04-20T08:53:48;8.30;;;2.20;;
22922;SDS011;11627;51.322;22.816;2023-04-20T08:56:15;10.85;;;2.17;;
22922;SDS011;11627;51.322;22.816;2023-04-20T08:58:41;5.70;;;2.17;;
22922;SDS011;11627;51.322;22.816;2023-04-20T09:01:07;10.18;;;2.55;;
22922;SDS011;11627;51.322;22.816;2023-04-20T09:03:40;6.22;;;2.20;;
22922;SDS011;11627;51.322;22.816;2023-04-20T09:06:15;11.68;;;2.10;;
22922;SDS011;11627;51.322;22.816;2023-04-20T09:08:43;8.65;;;2.08;;
22922;SDS011;11627;51.322;22.816;2023-04-20T09:11:26;7.60;;;1.95;;
22922;SDS011;11627;51.322;22.816;2023-04-20T09:13:57;4.32;;;2.00;;
22922;SDS011;11627;51.322;22.816;2023-04-20T09:16:25;6.03;;;2.10;;
22922;SDS011;11627;51.322;22.816;2023-04-20T09:18:52;7.45;;;2.22;;
22922;SDS011;11627;51.322;22.816;2023-04-20T09:21:19;6.63;;;1.83;;
22922;SDS011;11627;51.322;22.816;2023-04-20T09:26:25;5.50;;;3.00;;
22922;SDS011;11627;51.322;22.816;2023-04-20T09:28:51;5.13;;;2.60;;
22922;SDS011;11627;51.322;22.816;2023-04-20T09:31:19;10.18;;;2.22;;
22922;SDS011;11627;51.322;22.816;2023-04-20T09:33:59;5.75;;;2.20;;
22922;SDS011;11627;51.322;22.816;2023-04-20T09:36:42;3.67;;;1.98;;
22922;SDS011;11627;51.322;22.816;2023-04-20T09:39:14;5.07;;;2.38;;
22922;SDS011;11627;51.322;22.816;2023-04-20T09:41:42;4.75;;;2.40;;
22922;SDS011;11627;51.322;22.816;2023-04-20T09:44:13;5.28;;;2.03;;
22922;SDS011;11627;51.322;22.816;2023-04-20T09:46:42;9.95;;;2.60;;
22922;SDS011;11627;51.322;22.816;2023-04-20T09:49:10;6.60;;;2.10;;
22922;SDS011;11627;51.322;22.816;2023-04-20T09:51:39;6.03;;;2.10;;
22922;SDS011;11627;51.322;22.816;2023-04-20T09:54:09;7.88;;;2.45;;
22922;SDS011;11627;51.322;22.816;2023-04-20T09:56:37;5.25;;;1.92;;
22922;SDS011;11627;51.322;22.816;2023-04-20T09:59:06;5.40;;;2.30;;
22922;SDS011;11627;51.322;22.816;2023-04-20T10:01:32;11.20;;;2.45;;
22922;SDS011;11627;51.322;22.816;2023-04-20T10:04:01;12.27;;;4.55;;
22922;SDS011;11627;51.322;22.816;2023-04-20T10:06:32;5.55;;;2.63;;
22922;SDS011;11627;51.322;22.816;2023-04-20T10:09:03;7.70;;;2.75;;
22922;SDS011;11627;51.322;22.816;2023-04-20T10:11:36;5.18;;;2.40;;
22922;SDS011;11627;51.322;22.816;2023-04-20T10:14:17;4.55;;;2.45;;
22922;SDS011;11627;51.322;22.816;2023-04-20T10:19:44;7.07;;;2.60;;
22922;SDS011;11627;51.322;22.816;2023-04-20T10:22:12;7.00;;;2.40;;
22922;SDS011;11627;51.322;22.816;2023-04-20T10:24:49;3.95;;;2.47;;
22922;SDS011;11627;51.322;22.816;2023-04-20T10:27:18;5.72;;;2.50;;
22922;SDS011;11627;51.322;22.816;2023-04-20T10:29:45;5.03;;;2.47;;
22922;SDS011;11627;51.322;22.816;2023-04-20T10:32:24;5.90;;;2.42;;
22922;SDS011;11627;51.322;22.816;2023-04-20T10:35:01;8.57;;;2.42;;
22922;SDS011;11627;51.322;22.816;2023-04-20T10:37:34;8.02;;;3.50;;
22922;SDS011;11627;51.322;22.816;2023-04-20T10:40:12;7.38;;;2.63;;
22922;SDS011;11627;51.322;22.816;2023-04-20T10:42:44;7.75;;;2.90;;
22922;SDS011;11627;51.322;22.816;2023-04-20T10:45:10;3.55;;;2.58;;
22922;SDS011;11627;51.322;22.816;2023-04-20T10:47:38;7.43;;;3.92;;
22922;SDS011;11627;51.322;22.816;2023-04-20T10:50:08;8.65;;;3.78;;
22922;SDS011;11627;51.322;22.816;2023-04-20T10:52:35;7.22;;;2.47;;
22922;SDS011;11627;51.322;22.816;2023-04-20T10:55:03;8.63;;;2.72;;
22922;SDS011;11627;51.322;22.816;2023-04-20T10:57:32;8.57;;;2.70;;
22922;SDS011;11627;51.322;22.816;2023-04-20T10:59:58;9.05;;;2.90;;
22922;SDS011;11627;51.322;22.816;2023-04-20T11:02:44;7.25;;;2.80;;
22922;SDS011;11627;51.322;22.816;2023-04-20T11:05:14;10.30;;;2.53;;
22922;SDS011;11627;51.322;22.816;2023-04-20T11:07:53;8.45;;;2.50;;
22922;SDS011;11627;51.322;22.816;2023-04-20T11:10:23;10.75;;;2.50;;
22922;SDS011;11627;51.322;22.816;2023-04-20T11:13:01;8.90;;;2.83;;
22922;SDS011;11627;51.322;22.816;2023-04-20T11:15:30;6.97;;;2.60;;
22922;SDS011;11627;51.322;22.816;2023-04-20T11:18:10;5.35;;;2.15;;
22922;SDS011;11627;51.322;22.816;2023-04-20T11:20:59;6.68;;;2.13;;
22922;SDS011;11627;51.322;22.816;2023-04-20T11:23:23;6.07;;;2.50;;
22922;SDS011;11627;51.322;22.816;2023-04-20T11:25:52;8.43;;;2.85;;
22922;SDS011;11627;51.322;22.816;2023-04-20T11:28:19;7.57;;;2.67;;
22922;SDS011;11627;51.322;22.816;2023-04-20T11:30:46;4.20;;;2.08;;
22922;SDS011;11627;51.322;22.816;2023-04-20T11:33:14;7.15;;;2.33;;
22922;SDS011;11627;51.322;22.816;2023-04-20T11:35:58;5.07;;;2.53;;
22922;SDS011;11627;51.322;22.816;2023-04-20T11:38:33;3.58;;;2.25;;
22922;SDS011;11627;51.322;22.816;2023-04-20T11:41:03;3.08;;;2.17;;
22922;SDS011;11627;51.322;22.816;2023-04-20T11:43:31;8.63;;;2.45;;
22922;SDS011;11627;51.322;22.816;2023-04-20T11:46:01;7.00;;;4.38;;
22922;SDS011;11627;51.322;22.816;2023-04-20T11:48:29;3.78;;;2.30;;
22922;SDS011;11627;51.322;22.816;2023-04-20T11:50:55;6.68;;;2.13;;
22922;SDS011;11627;51.322;22.816;2023-04-20T11:53:21;8.07;;;2.50;;
22922;SDS011;11627;51.322;22.816;2023-04-20T11:55:47;6.00;;;2.20;;
22922;SDS011;11627;51.322;22.816;2023-04-20T11:58:14;3.47;;;2.10;;
22922;SDS011;11627;51.322;22.816;2023-04-20T12:00:40;8.68;;;2.30;;
22922;SDS011;11627;51.322;22.816;2023-04-20T12:03:05;6.28;;;2.17;;
22922;SDS011;11627;51.322;22.816;2023-04-20T12:05:31;7.38;;;2.40;;
22922;SDS011;11627;51.322;22.816;2023-04-20T12:07:58;3.28;;;2.45;;
22922;SDS011;11627;51.322;22.816;2023-04-20T12:10:24;6.55;;;2.28;;
22922;SDS011;11627;51.322;22.816;2023-04-20T12:12:50;5.22;;;1.90;;
22922;SDS011;11627;51.322;22.816;2023-04-20T12:15:18;4.72;;;2.50;;
22922;SDS011;11627;51.322;22.816;2023-04-20T12:17:43;3.67;;;2.03;;
22922;SDS011;11627;51.322;22.816;2023-04-20T12:20:10;7.32;;;2.45;;
22922;SDS011;11627;51.322;22.816;2023-04-20T12:22:36;4.43;;;2.10;;
22922;SDS011;11627;51.322;22.816;2023-04-20T12:25:04;6.75;;;2.35;;
22922;SDS011;11627;51.322;22.816;2023-04-20T12:27:33;10.27;;;2.25;;
22922;SDS011;11627;51.322;22.816;2023-04-20T12:30:00;4.43;;;2.10;;
22922;SDS011;11627;51.322;22.816;2023-04-20T12:32:27;6.82;;;2.50;;
22922;SDS011;11627;51.322;22.816;2023-04-20T12:34:53;3.25;;;2.00;;
22922;SDS011;11627;51.322;22.816;2023-04-20T12:37:19;5.85;;;3.65;;
22922;SDS011;11627;51.322;22.816;2023-04-20T12:39:45;6.72;;;2.78;;
22922;SDS011;11627;51.322;22.816;2023-04-20T12:42:11;4.30;;;2.20;;
22922;SDS011;11627;51.322;22.816;2023-04-20T12:44:37;6.90;;;2.40;;
22922;SDS011;11627;51.322;22.816;2023-04-20T12:47:03;7.20;;;2.60;;
22922;SDS011;11627;51.322;22.816;2023-04-20T12:49:29;5.32;;;2.17;;
22922;SDS011;11627;51.322;22.816;2023-04-20T12:51:55;4.90;;;2.40;;
22922;SDS011;11627;51.322;22.816;2023-04-20T12:54:22;7.82;;;2.10;;
22922;SDS011;11627;51.322;22.816;2023-04-20T12:56:49;3.95;;;2.20;;
22922;SDS011;11627;51.322;22.816;2023-04-20T12:59:15;5.40;;;2.40;;
22922;SDS011;11627;51.322;22.816;2023-04-20T13:01:40;4.05;;;2.40;;
22922;SDS011;11627;51.322;22.816;2023-04-20T13:04:08;3.60;;;2.55;;
22922;SDS011;11627;51.322;22.816;2023-04-20T13:06:35;5.65;;;2.22;;
22922;SDS011;11627;51.322;22.816;2023-04-20T13:09:02;5.80;;;2.50;;
22922;SDS011;11627;51.322;22.816;2023-04-20T13:11:28;8.18;;;2.30;;
22922;SDS011;11627;51.322;22.816;2023-04-20T13:13:56;5.47;;;2.50;;
22922;SDS011;11627;51.322;22.816;2023-04-20T13:16:23;4.72;;;2.58;;
22922;SDS011;11627;51.322;22.816;2023-04-20T13:18:49;3.88;;;2.40;;
22922;SDS011;11627;51.322;22.816;2023-04-20T13:21:15;5.13;;;2.28;;
22922;SDS011;11627;51.322;22.816;2023-04-20T13:23:40;10.90;;;2.65;;
22922;SDS011;11627;51.322;22.816;2023-04-20T13:26:06;5.13;;;2.20;;
22922;SDS011;11627;51.322;22.816;2023-04-20T13:28:32;3.75;;;2.53;;
22922;SDS011;11627;51.322;22.816;2023-04-20T13:30:59;9.18;;;3.55;;
22922;SDS011;11627;51.322;22.816;2023-04-20T13:33:26;7.05;;;2.50;;
22922;SDS011;11627;51.322;22.816;2023-04-20T13:35:51;4.03;;;2.25;;
22922;SDS011;11627;51.322;22.816;2023-04-20T13:38:17;5.03;;;2.28;;
22922;SDS011;11627;51.322;22.816;2023-04-20T13:40:43;6.13;;;2.70;;
22922;SDS011;11627;51.322;22.816;2023-04-20T13:43:11;5.53;;;2.45;;
22922;SDS011;11627;51.322;22.816;2023-04-20T13:45:38;5.43;;;2.20;;
22922;SDS011;11627;51.322;22.816;2023-04-20T13:48:05;7.57;;;2.60;;
22922;SDS011;11627;51.322;22.816;2023-04-20T13:50:31;15.38;;;2.80;;
22922;SDS011;11627;51.322;22.816;2023-04-20T13:52:59;6.50;;;2.28;;
22922;SDS011;11627;51.322;22.816;2023-04-20T13:55:28;8.52;;;2.70;;
22922;SDS011;11627;51.322;22.816;2023-04-20T13:57:54;7.45;;;2.55;;
22922;SDS011;11627;51.322;22.816;2023-04-20T14:00:21;3.92;;;2.40;;
22922;SDS011;11627;51.322;22.816;2023-04-20T14:02:49;6.40;;;2.33;;
22922;SDS011;11627;51.322;22.816;2023-04-20T14:05:16;7.30;;;2.60;;
22922;SDS011;11627;51.322;22.816;2023-04-20T14:07:42;5.15;;;2.50;;
22922;SDS011;11627;51.322;22.816;2023-04-20T14:10:08;3.97;;;2.50;;
22922;SDS011;11627;51.322;22.816;2023-04-20T14:12:35;7.30;;;2.65;;
22922;SDS011;11627;51.322;22.816;2023-04-20T14:15:02;5.93;;;2.40;;
22922;SDS011;11627;51.322;22.816;2023-04-20T14:17:28;3.63;;;2.22;;
22922;SDS011;11627;51.322;22.816;2023-04-20T14:19:54;9.60;;;2.28;;
22922;SDS011;11627;51.322;22.816;2023-04-20T14:22:23;6.53;;;2.08;;
22922;SDS011;11627;51.322;22.816;2023-04-20T14:24:48;5.63;;;2.40;;
22922;SDS011;11627;51.322;22.816;2023-04-20T14:27:14;4.88;;;2.45;;
22922;SDS011;11627;51.322;22.816;2023-04-20T14:29:40;3.28;;;2.30;;
22922;SDS011;11627;51.322;22.816;2023-04-20T14:32:07;4.35;;;2.83;;
22922;SDS011;11627;51.322;22.816;2023-04-20T14:34:34;3.33;;;2.38;;
22922;SDS011;11627;51.322;22.816;2023-04-20T14:37:01;5.20;;;2.50;;
22922;SDS011;11627;51.322;22.816;2023-04-20T14:39:28;8.23;;;3.33;;